sensor_id;sensor_type;location;lat;lon;timestamp;P1;durP1;ratioP1;P2;durP2;ratioP2
38715;SDS011;24833;49.324;8.694;2022-12-29T00:00:54;2.00;;;1.10;;
38715;SDS011;24833;49.324;8.694;2022-12-29T00:03:21;2.47;;;1.52;;
38715;SDS011;24833;49.324;8.694;2022-12-29T00:05:53;3.30;;;1.27;;
38715;SDS011;24833;49.324;8.694;2022-12-29T00:08:22;1.77;;;0.98;;
38715;SDS011;24833;49.324;8.694;2022-12-29T00:11:09;1.58;;;1.17;;
38715;SDS011;24833;49.324;8.694;2022-12-29T00:13:40;1.85;;;1.25;;
38715;SDS011;24833;49.324;8.694;2022-12-29T00:16:26;2.33;;;1.05;;
38715;SDS011;24833;49.324;8.694;2022-12-29T00:18:54;1.83;;;1.20;;
38715;SDS011;24833;49.324;8.694;2022-12-29T00:21:22;4.60;;;1.58;;
38715;SDS011;24833;49.324;8.694;2022-12-29T00:24:13;1.27;;;0.95;;
38715;SDS011;24833;49.324;8.694;2022-12-29T00:26:57;2.22;;;1.40;;
38715;SDS011;24833;49.324;8.694;2022-12-29T00:29:43;1.23;;;0.90;;
38715;SDS011;24833;49.324;8.694;2022-12-29T00:32:29;2.08;;;1.40;;
38715;SDS011;24833;49.324;8.694;2022-12-29T00:35:19;2.28;;;1.27;;
38715;SDS011;24833;49.324;8.694;2022-12-29T00:37:55;1.30;;;1.00;;
38715;SDS011;24833;49.324;8.694;2022-12-29T00:40:46;2.05;;;1.20;;
38715;SDS011;24833;49.324;8.694;2022-12-29T00:43:32;2.33;;;1.08;;
38715;SDS011;24833;49.324;8.694;2022-12-29T00:46:18;1.10;;;1.00;;
38715;SDS011;24833;49.324;8.694;2022-12-29T00:48:45;3.15;;;1.10;;
38715;SDS011;24833;49.324;8.694;2022-12-29T00:51:31;1.02;;;0.80;;
38715;SDS011;24833;49.324;8.694;2022-12-29T00:53:58;1.73;;;1.13;;
38715;SDS011;24833;49.324;8.694;2022-12-29T00:56:25;2.13;;;1.05;;
38715;SDS011;24833;49.324;8.694;2022-12-29T00:58:52;1.30;;;1.00;;
38715;SDS011;24833;49.324;8.694;2022-12-29T01:01:18;1.80;;;0.95;;
38715;SDS011;24833;49.324;8.694;2022-12-29T01:03:46;1.85;;;1.23;;
38715;SDS011;24833;49.324;8.694;2022-12-29T01:06:13;1.88;;;0.98;;
38715;SDS011;24833;49.324;8.694;2022-12-29T01:08:41;1.55;;;0.93;;
38715;SDS011;24833;49.324;8.694;2022-12-29T01:11:11;3.28;;;1.05;;
38715;SDS011;24833;49.324;8.694;2022-12-29T01:13:39;1.95;;;1.10;;
38715;SDS011;24833;49.324;8.694;2022-12-29T01:16:07;1.85;;;1.17;;
38715;SDS011;24833;49.324;8.694;2022-12-29T01:18:34;4.05;;;1.15;;
38715;SDS011;24833;49.324;8.694;2022-12-29T01:21:05;2.75;;;1.48;;
38715;SDS011;24833;49.324;8.694;2022-12-29T01:23:32;1.40;;;1.10;;
38715;SDS011;24833;49.324;8.694;2022-12-29T01:26:10;3.60;;;1.33;;
38715;SDS011;24833;49.324;8.694;2022-12-29T01:28:39;1.83;;;0.93;;
38715;SDS011;24833;49.324;8.694;2022-12-29T01:31:08;3.08;;;1.10;;
38715;SDS011;24833;49.324;8.694;2022-12-29T01:33:35;3.10;;;1.13;;
38715;SDS011;24833;49.324;8.694;2022-12-29T01:36:03;1.67;;;1.08;;
38715;SDS011;24833;49.324;8.694;2022-12-29T01:38:34;1.10;;;0.90;;
38715;SDS011;24833;49.324;8.694;2022-12-29T01:41:02;2.97;;;0.98;;
38715;SDS011;24833;49.324;8.694;2022-12-29T01:48:53;1.45;;;0.85;;
38715;SDS011;24833;49.324;8.694;2022-12-29T01:51:31;2.47;;;0.80;;
38715;SDS011;24833;49.324;8.694;2022-12-29T01:54:07;1.17;;;0.85;;
38715;SDS011;24833;49.324;8.694;2022-12-29T01:56:42;4.78;;;1.20;;
38715;SDS011;24833;49.324;8.694;2022-12-29T01:59:11;1.05;;;0.93;;
38715;SDS011;24833;49.324;8.694;2022-12-29T02:01:44;1.58;;;0.88;;
38715;SDS011;24833;49.324;8.694;2022-12-29T02:04:11;1.08;;;0.90;;
38715;SDS011;24833;49.324;8.694;2022-12-29T02:06:53;1.40;;;0.88;;
38715;SDS011;24833;49.324;8.694;2022-12-29T02:09:25;1.98;;;0.95;;
38715;SDS011;24833;49.324;8.694;2022-12-29T02:11:52;1.85;;;0.85;;
38715;SDS011;24833;49.324;8.694;2022-12-29T02:14:20;1.35;;;0.80;;
38715;SDS011;24833;49.324;8.694;2022-12-29T02:16:57;1.42;;;1.05;;
38715;SDS011;24833;49.324;8.694;2022-12-29T02:20:09;1.52;;;0.90;;
38715;SDS011;24833;49.324;8.694;2022-12-29T02:26:07;1.95;;;1.05;;
38715;SDS011;24833;49.324;8.694;2022-12-29T02:31:58;1.88;;;1.10;;
38715;SDS011;24833;49.324;8.694;2022-12-29T02:34:36;3.88;;;0.93;;
38715;SDS011;24833;49.324;8.694;2022-12-29T02:37:27;2.28;;;0.90;;
38715;SDS011;24833;49.324;8.694;2022-12-29T02:42:59;2.33;;;1.00;;
38715;SDS011;24833;49.324;8.694;2022-12-29T02:45:54;2.13;;;1.10;;
38715;SDS011;24833;49.324;8.694;2022-12-29T02:48:46;1.63;;;1.25;;
38715;SDS011;24833;49.324;8.694;2022-12-29T02:51:23;1.70;;;1.00;;
38715;SDS011;24833;49.324;8.694;2022-12-29T02:54:13;0.88;;;0.73;;
38715;SDS011;24833;49.324;8.694;2022-12-29T02:57:02;1.50;;;1.10;;
38715;SDS011;24833;49.324;8.694;2022-12-29T02:59:29;1.70;;;1.00;;
38715;SDS011;24833;49.324;8.694;2022-12-29T03:05:15;2.00;;;0.98;;
38715;SDS011;24833;49.324;8.694;2022-12-29T03:11:05;1.45;;;1.10;;
38715;SDS011;24833;49.324;8.694;2022-12-29T03:14:02;1.35;;;1.08;;
38715;SDS011;24833;49.324;8.694;2022-12-29T03:17:26;0.80;;;0.80;;
38715;SDS011;24833;49.324;8.694;2022-12-29T03:20:04;1.73;;;0.82;;
38715;SDS011;24833;49.324;8.694;2022-12-29T03:22:39;4.00;;;0.93;;
38715;SDS011;24833;49.324;8.694;2022-12-29T03:25:16;4.32;;;1.27;;
38715;SDS011;24833;49.324;8.694;2022-12-29T03:27:59;1.42;;;1.23;;
38715;SDS011;24833;49.324;8.694;2022-12-29T03:30:35;1.05;;;0.95;;
38715;SDS011;24833;49.324;8.694;2022-12-29T03:33:07;4.85;;;0.98;;
38715;SDS011;24833;49.324;8.694;2022-12-29T03:35:40;1.38;;;0.73;;
38715;SDS011;24833;49.324;8.694;2022-12-29T03:40:49;0.98;;;0.73;;
38715;SDS011;24833;49.324;8.694;2022-12-29T03:43:23;1.15;;;0.80;;
38715;SDS011;24833;49.324;8.694;2022-12-29T03:45:53;1.75;;;0.80;;
38715;SDS011;24833;49.324;8.694;2022-12-29T03:48:21;1.95;;;0.98;;
38715;SDS011;24833;49.324;8.694;2022-12-29T03:50:49;4.00;;;1.40;;
38715;SDS011;24833;49.324;8.694;2022-12-29T03:53:18;0.88;;;0.68;;
38715;SDS011;24833;49.324;8.694;2022-12-29T03:55:45;2.90;;;0.90;;
38715;SDS011;24833;49.324;8.694;2022-12-29T03:58:12;2.42;;;0.90;;
38715;SDS011;24833;49.324;8.694;2022-12-29T04:00:50;2.28;;;1.08;;
38715;SDS011;24833;49.324;8.694;2022-12-29T04:03:17;1.88;;;1.20;;
38715;SDS011;24833;49.324;8.694;2022-12-29T04:05:44;1.42;;;1.00;;
38715;SDS011;24833;49.324;8.694;2022-12-29T04:08:11;1.75;;;0.73;;
38715;SDS011;24833;49.324;8.694;2022-12-29T04:10:38;2.80;;;1.10;;
38715;SDS011;24833;49.324;8.694;2022-12-29T04:13:06;1.08;;;0.65;;
38715;SDS011;24833;49.324;8.694;2022-12-29T04:15:33;0.85;;;0.63;;
38715;SDS011;24833;49.324;8.694;2022-12-29T04:18:01;1.25;;;0.90;;
38715;SDS011;24833;49.324;8.694;2022-12-29T04:20:28;1.85;;;0.95;;
38715;SDS011;24833;49.324;8.694;2022-12-29T04:23:13;1.05;;;0.95;;
38715;SDS011;24833;49.324;8.694;2022-12-29T04:25:40;1.52;;;0.90;;
38715;SDS011;24833;49.324;8.694;2022-12-29T04:28:12;2.60;;;0.77;;
38715;SDS011;24833;49.324;8.694;2022-12-29T04:30:59;1.27;;;1.05;;
38715;SDS011;24833;49.324;8.694;2022-12-29T04:33:39;0.95;;;0.88;;
38715;SDS011;24833;49.324;8.694;2022-12-29T04:36:06;1.25;;;0.60;;
38715;SDS011;24833;49.324;8.694;2022-12-29T04:38:35;1.08;;;0.77;;
38715;SDS011;24833;49.324;8.694;2022-12-29T04:41:03;2.95;;;0.88;;
38715;SDS011;24833;49.324;8.694;2022-12-29T04:43:31;1.50;;;0.77;;
38715;SDS011;24833;49.324;8.694;2022-12-29T04:46:22;0.80;;;0.70;;
38715;SDS011;24833;49.324;8.694;2022-12-29T04:49:01;1.17;;;0.63;;
38715;SDS011;24833;49.324;8.694;2022-12-29T04:51:51;1.42;;;0.60;;
38715;SDS011;24833;49.324;8.694;2022-12-29T04:54:19;1.63;;;0.95;;
38715;SDS011;24833;49.324;8.694;2022-12-29T04:56:54;1.88;;;0.88;;
38715;SDS011;24833;49.324;8.694;2022-12-29T04:59:20;1.15;;;0.70;;
38715;SDS011;24833;49.324;8.694;2022-12-29T05:01:51;0.90;;;0.80;;
38715;SDS011;24833;49.324;8.694;2022-12-29T05:04:18;1.50;;;0.80;;
38715;SDS011;24833;49.324;8.694;2022-12-29T05:06:45;2.42;;;0.80;;
38715;SDS011;24833;49.324;8.694;2022-12-29T05:09:13;1.20;;;1.10;;
38715;SDS011;24833;49.324;8.694;2022-12-29T05:11:40;1.77;;;0.90;;
38715;SDS011;24833;49.324;8.694;2022-12-29T05:14:08;1.35;;;0.90;;
38715;SDS011;24833;49.324;8.694;2022-12-29T05:16:36;2.40;;;0.90;;
38715;SDS011;24833;49.324;8.694;2022-12-29T05:19:04;1.42;;;0.73;;
38715;SDS011;24833;49.324;8.694;2022-12-29T05:21:32;2.05;;;0.90;;
38715;SDS011;24833;49.324;8.694;2022-12-29T05:23:59;1.38;;;0.80;;
38715;SDS011;24833;49.324;8.694;2022-12-29T05:26:27;1.70;;;1.17;;
38715;SDS011;24833;49.324;8.694;2022-12-29T05:29:03;1.45;;;1.00;;
38715;SDS011;24833;49.324;8.694;2022-12-29T05:31:31;3.15;;;0.80;;
38715;SDS011;24833;49.324;8.694;2022-12-29T05:33:59;2.28;;;0.75;;
38715;SDS011;24833;49.324;8.694;2022-12-29T05:36:27;2.10;;;0.98;;
38715;SDS011;24833;49.324;8.694;2022-12-29T05:39:01;0.63;;;0.63;;
38715;SDS011;24833;49.324;8.694;2022-12-29T05:41:29;1.30;;;0.70;;
38715;SDS011;24833;49.324;8.694;2022-12-29T05:44:15;2.22;;;0.77;;
38715;SDS011;24833;49.324;8.694;2022-12-29T05:46:43;1.92;;;0.82;;
38715;SDS011;24833;49.324;8.694;2022-12-29T05:49:16;2.25;;;0.98;;
38715;SDS011;24833;49.324;8.694;2022-12-29T05:52:07;2.80;;;0.88;;
38715;SDS011;24833;49.324;8.694;2022-12-29T05:54:34;0.90;;;0.90;;
38715;SDS011;24833;49.324;8.694;2022-12-29T05:57:06;1.20;;;0.70;;
38715;SDS011;24833;49.324;8.694;2022-12-29T05:59:33;1.05;;;0.88;;
38715;SDS011;24833;49.324;8.694;2022-12-29T06:02:01;2.45;;;0.90;;
38715;SDS011;24833;49.324;8.694;2022-12-29T06:04:28;1.17;;;0.80;;
38715;SDS011;24833;49.324;8.694;2022-12-29T06:06:55;3.08;;;1.10;;
38715;SDS011;24833;49.324;8.694;2022-12-29T06:09:34;2.65;;;0.80;;
38715;SDS011;24833;49.324;8.694;2022-12-29T06:12:02;1.63;;;0.68;;
38715;SDS011;24833;49.324;8.694;2022-12-29T06:14:29;1.17;;;0.73;;
38715;SDS011;24833;49.324;8.694;2022-12-29T06:16:57;1.15;;;0.93;;
38715;SDS011;24833;49.324;8.694;2022-12-29T06:19:24;1.67;;;0.85;;
38715;SDS011;24833;49.324;8.694;2022-12-29T06:21:51;1.90;;;0.98;;
38715;SDS011;24833;49.324;8.694;2022-12-29T06:24:19;1.83;;;1.10;;
38715;SDS011;24833;49.324;8.694;2022-12-29T06:26:47;3.22;;;0.80;;
38715;SDS011;24833;49.324;8.694;2022-12-29T06:29:14;2.92;;;1.10;;
38715;SDS011;24833;49.324;8.694;2022-12-29T06:31:43;1.30;;;0.95;;
38715;SDS011;24833;49.324;8.694;2022-12-29T06:34:15;1.23;;;1.00;;
38715;SDS011;24833;49.324;8.694;2022-12-29T06:36:42;1.13;;;1.02;;
38715;SDS011;24833;49.324;8.694;2022-12-29T06:39:10;1.70;;;0.93;;
38715;SDS011;24833;49.324;8.694;2022-12-29T06:41:37;2.75;;;1.00;;
38715;SDS011;24833;49.324;8.694;2022-12-29T06:44:27;1.20;;;1.10;;
38715;SDS011;24833;49.324;8.694;2022-12-29T06:46:59;1.20;;;1.10;;
38715;SDS011;24833;49.324;8.694;2022-12-29T06:49:26;2.53;;;1.20;;
38715;SDS011;24833;49.324;8.694;2022-12-29T06:51:53;2.03;;;1.02;;
38715;SDS011;24833;49.324;8.694;2022-12-29T06:54:20;2.47;;;0.85;;
38715;SDS011;24833;49.324;8.694;2022-12-29T06:56:47;2.35;;;1.20;;
38715;SDS011;24833;49.324;8.694;2022-12-29T06:59:13;4.30;;;1.33;;
38715;SDS011;24833;49.324;8.694;2022-12-29T07:01:40;1.27;;;0.88;;
38715;SDS011;24833;49.324;8.694;2022-12-29T07:04:08;1.80;;;1.15;;
38715;SDS011;24833;49.324;8.694;2022-12-29T07:06:34;2.08;;;1.13;;
38715;SDS011;24833;49.324;8.694;2022-12-29T07:09:02;2.05;;;1.13;;
38715;SDS011;24833;49.324;8.694;2022-12-29T07:11:29;4.53;;;1.40;;
38715;SDS011;24833;49.324;8.694;2022-12-29T07:13:56;2.38;;;1.42;;
38715;SDS011;24833;49.324;8.694;2022-12-29T07:16:29;2.35;;;1.40;;
38715;SDS011;24833;49.324;8.694;2022-12-29T07:18:57;1.23;;;1.08;;
38715;SDS011;24833;49.324;8.694;2022-12-29T07:21:25;1.30;;;1.17;;
38715;SDS011;24833;49.324;8.694;2022-12-29T07:23:53;2.60;;;1.33;;
38715;SDS011;24833;49.324;8.694;2022-12-29T07:26:21;1.38;;;1.10;;
38715;SDS011;24833;49.324;8.694;2022-12-29T07:28:48;1.20;;;1.10;;
38715;SDS011;24833;49.324;8.694;2022-12-29T07:31:16;1.05;;;0.93;;
38715;SDS011;24833;49.324;8.694;2022-12-29T07:33:46;2.78;;;1.25;;
38715;SDS011;24833;49.324;8.694;2022-12-29T07:36:14;2.80;;;1.30;;
38715;SDS011;24833;49.324;8.694;2022-12-29T07:38:43;5.07;;;1.45;;
38715;SDS011;24833;49.324;8.694;2022-12-29T07:41:10;2.83;;;1.50;;
38715;SDS011;24833;49.324;8.694;2022-12-29T07:43:37;1.95;;;1.40;;
38715;SDS011;24833;49.324;8.694;2022-12-29T07:46:31;1.63;;;1.38;;
38715;SDS011;24833;49.324;8.694;2022-12-29T07:49:18;2.28;;;1.15;;
38715;SDS011;24833;49.324;8.694;2022-12-29T07:51:45;2.95;;;1.33;;
38715;SDS011;24833;49.324;8.694;2022-12-29T07:54:11;2.50;;;1.52;;
38715;SDS011;24833;49.324;8.694;2022-12-29T07:56:39;2.80;;;1.40;;
38715;SDS011;24833;49.324;8.694;2022-12-29T07:59:05;1.90;;;1.30;;
38715;SDS011;24833;49.324;8.694;2022-12-29T08:01:33;1.52;;;1.08;;
38715;SDS011;24833;49.324;8.694;2022-12-29T08:04:00;2.70;;;1.38;;
38715;SDS011;24833;49.324;8.694;2022-12-29T08:06:27;2.97;;;1.23;;
38715;SDS011;24833;49.324;8.694;2022-12-29T08:08:55;3.35;;;1.20;;
38715;SDS011;24833;49.324;8.694;2022-12-29T08:11:23;3.33;;;1.48;;
38715;SDS011;24833;49.324;8.694;2022-12-29T08:13:50;1.80;;;1.50;;
38715;SDS011;24833;49.324;8.694;2022-12-29T08:16:17;4.45;;;1.60;;
38715;SDS011;24833;49.324;8.694;2022-12-29T08:18:44;3.10;;;1.52;;
38715;SDS011;24833;49.324;8.694;2022-12-29T08:21:11;1.20;;;1.10;;
38715;SDS011;24833;49.324;8.694;2022-12-29T08:23:38;1.83;;;1.35;;
38715;SDS011;24833;49.324;8.694;2022-12-29T08:26:05;3.70;;;1.00;;
38715;SDS011;24833;49.324;8.694;2022-12-29T08:28:32;1.85;;;1.20;;
38715;SDS011;24833;49.324;8.694;2022-12-29T08:31:00;2.33;;;1.40;;
38715;SDS011;24833;49.324;8.694;2022-12-29T08:33:29;1.77;;;1.25;;
38715;SDS011;24833;49.324;8.694;2022-12-29T08:36:00;3.15;;;1.15;;
38715;SDS011;24833;49.324;8.694;2022-12-29T08:38:32;2.08;;;1.27;;
38715;SDS011;24833;49.324;8.694;2022-12-29T08:40:59;2.33;;;1.60;;
38715;SDS011;24833;49.324;8.694;2022-12-29T08:43:29;2.17;;;1.48;;
38715;SDS011;24833;49.324;8.694;2022-12-29T08:45:57;3.45;;;1.40;;
38715;SDS011;24833;49.324;8.694;2022-12-29T08:48:25;4.40;;;2.00;;
38715;SDS011;24833;49.324;8.694;2022-12-29T08:50:53;2.60;;;1.35;;
38715;SDS011;24833;49.324;8.694;2022-12-29T08:53:20;2.40;;;1.10;;
38715;SDS011;24833;49.324;8.694;2022-12-29T08:55:47;1.67;;;1.38;;
38715;SDS011;24833;49.324;8.694;2022-12-29T08:58:35;1.73;;;1.10;;
38715;SDS011;24833;49.324;8.694;2022-12-29T09:01:03;1.77;;;1.13;;
38715;SDS011;24833;49.324;8.694;2022-12-29T09:03:31;1.30;;;1.20;;
38715;SDS011;24833;49.324;8.694;2022-12-29T09:06:19;3.33;;;1.40;;
38715;SDS011;24833;49.324;8.694;2022-12-29T09:08:46;2.78;;;1.50;;
38715;SDS011;24833;49.324;8.694;2022-12-29T09:11:15;2.15;;;1.40;;
38715;SDS011;24833;49.324;8.694;2022-12-29T09:13:48;3.15;;;1.45;;
38715;SDS011;24833;49.324;8.694;2022-12-29T09:16:16;2.67;;;1.50;;
38715;SDS011;24833;49.324;8.694;2022-12-29T09:18:44;2.50;;;1.63;;
38715;SDS011;24833;49.324;8.694;2022-12-29T09:21:11;3.97;;;1.77;;
38715;SDS011;24833;49.324;8.694;2022-12-29T09:23:39;2.60;;;1.45;;
38715;SDS011;24833;49.324;8.694;2022-12-29T09:26:06;2.03;;;1.30;;
38715;SDS011;24833;49.324;8.694;2022-12-29T09:28:34;2.70;;;1.40;;
38715;SDS011;24833;49.324;8.694;2022-12-29T09:31:03;2.38;;;1.33;;
38715;SDS011;24833;49.324;8.694;2022-12-29T09:33:30;3.03;;;2.13;;
38715;SDS011;24833;49.324;8.694;2022-12-29T09:35:59;1.90;;;1.50;;
38715;SDS011;24833;49.324;8.694;2022-12-29T09:38:26;1.75;;;1.27;;
38715;SDS011;24833;49.324;8.694;2022-12-29T09:46:42;1.65;;;1.17;;
38715;SDS011;24833;49.324;8.694;2022-12-29T09:52:15;1.75;;;1.23;;
38715;SDS011;24833;49.324;8.694;2022-12-29T09:55:31;2.08;;;1.38;;
38715;SDS011;24833;49.324;8.694;2022-12-29T09:57:59;3.75;;;1.67;;
38715;SDS011;24833;49.324;8.694;2022-12-29T10:00:52;2.92;;;1.40;;
38715;SDS011;24833;49.324;8.694;2022-12-29T10:03:27;2.65;;;1.40;;
38715;SDS011;24833;49.324;8.694;2022-12-29T10:06:21;2.30;;;1.20;;
38715;SDS011;24833;49.324;8.694;2022-12-29T10:12:16;2.65;;;1.42;;
38715;SDS011;24833;49.324;8.694;2022-12-29T10:18:03;2.55;;;1.42;;
38715;SDS011;24833;49.324;8.694;2022-12-29T10:24:07;3.13;;;1.50;;
38715;SDS011;24833;49.324;8.694;2022-12-29T10:26:41;2.22;;;1.70;;
38715;SDS011;24833;49.324;8.694;2022-12-29T10:29:13;2.17;;;1.70;;
38715;SDS011;24833;49.324;8.694;2022-12-29T10:31:48;1.92;;;1.40;;
38715;SDS011;24833;49.324;8.694;2022-12-29T10:34:34;3.40;;;1.63;;
38715;SDS011;24833;49.324;8.694;2022-12-29T10:39:45;1.55;;;1.40;;
38715;SDS011;24833;49.324;8.694;2022-12-29T10:45:03;5.43;;;1.80;;
38715;SDS011;24833;49.324;8.694;2022-12-29T10:47:37;3.53;;;1.48;;
38715;SDS011;24833;49.324;8.694;2022-12-29T10:50:19;2.17;;;1.33;;
38715;SDS011;24833;49.324;8.694;2022-12-29T10:52:46;2.65;;;1.33;;
38715;SDS011;24833;49.324;8.694;2022-12-29T10:58:17;1.92;;;1.48;;
38715;SDS011;24833;49.324;8.694;2022-12-29T11:00:52;1.20;;;0.97;;
38715;SDS011;24833;49.324;8.694;2022-12-29T11:06:25;3.05;;;1.33;;
38715;SDS011;24833;49.324;8.694;2022-12-29T11:08:56;4.70;;;1.10;;
38715;SDS011;24833;49.324;8.694;2022-12-29T11:11:42;1.00;;;0.82;;
38715;SDS011;24833;49.324;8.694;2022-12-29T11:14:17;2.47;;;0.73;;
38715;SDS011;24833;49.324;8.694;2022-12-29T11:16:57;1.67;;;0.93;;
38715;SDS011;24833;49.324;8.694;2022-12-29T11:19:27;1.48;;;1.00;;
38715;SDS011;24833;49.324;8.694;2022-12-29T11:22:38;0.80;;;0.80;;
38715;SDS011;24833;49.324;8.694;2022-12-29T11:25:05;0.90;;;0.80;;
38715;SDS011;24833;49.324;8.694;2022-12-29T11:27:38;1.33;;;1.08;;
38715;SDS011;24833;49.324;8.694;2022-12-29T11:30:12;1.17;;;0.85;;
38715;SDS011;24833;49.324;8.694;2022-12-29T11:32:51;1.77;;;1.20;;
38715;SDS011;24833;49.324;8.694;2022-12-29T11:35:31;3.10;;;1.70;;
38715;SDS011;24833;49.324;8.694;2022-12-29T11:38:06;2.10;;;1.17;;
38715;SDS011;24833;49.324;8.694;2022-12-29T11:40:48;1.77;;;1.05;;
38715;SDS011;24833;49.324;8.694;2022-12-29T11:43:37;5.55;;;1.52;;
38715;SDS011;24833;49.324;8.694;2022-12-29T11:46:16;1.45;;;1.20;;
38715;SDS011;24833;49.324;8.694;2022-12-29T11:49:02;1.58;;;1.15;;
38715;SDS011;24833;49.324;8.694;2022-12-29T11:51:34;2.05;;;1.25;;
38715;SDS011;24833;49.324;8.694;2022-12-29T11:54:11;1.63;;;1.40;;
38715;SDS011;24833;49.324;8.694;2022-12-29T11:56:57;2.60;;;1.30;;
38715;SDS011;24833;49.324;8.694;2022-12-29T11:59:40;0.90;;;0.80;;
38715;SDS011;24833;49.324;8.694;2022-12-29T12:02:25;1.80;;;0.90;;
38715;SDS011;24833;49.324;8.694;2022-12-29T12:05:10;1.52;;;1.05;;
38715;SDS011;24833;49.324;8.694;2022-12-29T12:07:50;2.45;;;1.35;;
38715;SDS011;24833;49.324;8.694;2022-12-29T12:10:31;2.38;;;1.42;;
38715;SDS011;24833;49.324;8.694;2022-12-29T12:13:29;1.90;;;1.02;;
38715;SDS011;24833;49.324;8.694;2022-12-29T12:16:13;2.25;;;1.10;;
38715;SDS011;24833;49.324;8.694;2022-12-29T12:18:49;1.60;;;1.35;;
38715;SDS011;24833;49.324;8.694;2022-12-29T12:21:39;1.67;;;1.08;;
38715;SDS011;24833;49.324;8.694;2022-12-29T12:24:18;1.27;;;1.10;;
38715;SDS011;24833;49.324;8.694;2022-12-29T12:29:56;3.42;;;0.80;;
38715;SDS011;24833;49.324;8.694;2022-12-29T12:41:07;1.77;;;0.75;;
38715;SDS011;24833;49.324;8.694;2022-12-29T12:44:25;1.13;;;0.90;;
38715;SDS011;24833;49.324;8.694;2022-12-29T12:50:12;1.38;;;1.00;;
38715;SDS011;24833;49.324;8.694;2022-12-29T12:53:03;1.30;;;0.90;;
38715;SDS011;24833;49.324;8.694;2022-12-29T13:14:04;2.85;;;1.20;;
38715;SDS011;24833;49.324;8.694;2022-12-29T13:16:51;0.98;;;0.88;;
38715;SDS011;24833;49.324;8.694;2022-12-29T13:19:46;1.55;;;0.90;;
38715;SDS011;24833;49.324;8.694;2022-12-29T13:22:45;1.15;;;1.00;;
38715;SDS011;24833;49.324;8.694;2022-12-29T13:34:40;1.27;;;1.13;;
38715;SDS011;24833;49.324;8.694;2022-12-29T13:37:50;1.58;;;1.10;;
38715;SDS011;24833;49.324;8.694;2022-12-29T13:40:38;1.20;;;1.10;;
38715;SDS011;24833;49.324;8.694;2022-12-29T13:43:12;2.75;;;1.50;;
38715;SDS011;24833;49.324;8.694;2022-12-29T13:45:42;2.53;;;1.13;;
38715;SDS011;24833;49.324;8.694;2022-12-29T13:48:16;1.25;;;1.10;;
38715;SDS011;24833;49.324;8.694;2022-12-29T13:50:51;2.78;;;1.05;;
38715;SDS011;24833;49.324;8.694;2022-12-29T13:53:41;3.15;;;1.58;;
38715;SDS011;24833;49.324;8.694;2022-12-29T13:56:49;3.17;;;1.58;;
38715;SDS011;24833;49.324;8.694;2022-12-29T14:01:54;3.88;;;1.25;;
38715;SDS011;24833;49.324;8.694;2022-12-29T14:04:35;1.42;;;1.20;;
38715;SDS011;24833;49.324;8.694;2022-12-29T14:07:03;2.72;;;1.70;;
38715;SDS011;24833;49.324;8.694;2022-12-29T14:15:04;2.42;;;1.50;;
38715;SDS011;24833;49.324;8.694;2022-12-29T14:17:42;1.92;;;1.17;;
38715;SDS011;24833;49.324;8.694;2022-12-29T14:20:20;1.73;;;1.40;;
38715;SDS011;24833;49.324;8.694;2022-12-29T14:22:59;1.65;;;1.27;;
38715;SDS011;24833;49.324;8.694;2022-12-29T14:28:33;3.30;;;1.27;;
38715;SDS011;24833;49.324;8.694;2022-12-29T14:31:05;1.55;;;1.10;;
38715;SDS011;24833;49.324;8.694;2022-12-29T14:36:34;2.70;;;1.80;;
38715;SDS011;24833;49.324;8.694;2022-12-29T14:39:04;1.88;;;1.50;;
38715;SDS011;24833;49.324;8.694;2022-12-29T14:52:52;3.30;;;1.88;;
38715;SDS011;24833;49.324;8.694;2022-12-29T14:55:32;5.55;;;2.03;;
38715;SDS011;24833;49.324;8.694;2022-12-29T15:00:58;2.95;;;1.92;;
38715;SDS011;24833;49.324;8.694;2022-12-29T15:03:38;4.82;;;1.83;;
38715;SDS011;24833;49.324;8.694;2022-12-29T15:06:18;3.15;;;1.88;;
38715;SDS011;24833;49.324;8.694;2022-12-29T15:11:18;3.22;;;1.58;;
38715;SDS011;24833;49.324;8.694;2022-12-29T15:14:01;3.08;;;1.90;;
38715;SDS011;24833;49.324;8.694;2022-12-29T15:16:33;1.67;;;1.10;;
38715;SDS011;24833;49.324;8.694;2022-12-29T15:19:03;1.50;;;0.90;;
38715;SDS011;24833;49.324;8.694;2022-12-29T15:21:32;1.25;;;1.00;;
38715;SDS011;24833;49.324;8.694;2022-12-29T15:24:02;1.13;;;1.02;;
38715;SDS011;24833;49.324;8.694;2022-12-29T15:26:36;2.00;;;1.02;;
38715;SDS011;24833;49.324;8.694;2022-12-29T15:34:54;1.58;;;0.82;;
38715;SDS011;24833;49.324;8.694;2022-12-29T15:37:27;2.08;;;0.90;;
38715;SDS011;24833;49.324;8.694;2022-12-29T15:40:02;1.00;;;0.85;;
38715;SDS011;24833;49.324;8.694;2022-12-29T15:42:48;2.22;;;1.05;;
38715;SDS011;24833;49.324;8.694;2022-12-29T15:45:23;2.08;;;0.90;;
38715;SDS011;24833;49.324;8.694;2022-12-29T15:47:58;1.17;;;1.08;;
38715;SDS011;24833;49.324;8.694;2022-12-29T15:50:27;1.15;;;0.93;;
38715;SDS011;24833;49.324;8.694;2022-12-29T15:52:57;1.55;;;1.25;;
38715;SDS011;24833;49.324;8.694;2022-12-29T15:55:35;1.42;;;1.10;;
38715;SDS011;24833;49.324;8.694;2022-12-29T15:58:05;1.42;;;1.33;;
38715;SDS011;24833;49.324;8.694;2022-12-29T16:00:48;0.80;;;0.80;;
38715;SDS011;24833;49.324;8.694;2022-12-29T16:03:20;1.23;;;1.10;;
38715;SDS011;24833;49.324;8.694;2022-12-29T16:05:55;2.63;;;0.90;;
38715;SDS011;24833;49.324;8.694;2022-12-29T16:08:38;1.10;;;0.98;;
38715;SDS011;24833;49.324;8.694;2022-12-29T16:11:23;0.95;;;0.70;;
38715;SDS011;24833;49.324;8.694;2022-12-29T16:14:08;1.10;;;0.90;;
38715;SDS011;24833;49.324;8.694;2022-12-29T16:16:41;0.80;;;0.80;;
38715;SDS011;24833;49.324;8.694;2022-12-29T16:19:32;1.40;;;1.08;;
38715;SDS011;24833;49.324;8.694;2022-12-29T16:22:09;2.08;;;1.42;;
38715;SDS011;24833;49.324;8.694;2022-12-29T16:24:43;3.60;;;1.90;;
38715;SDS011;24833;49.324;8.694;2022-12-29T16:30:07;2.78;;;1.92;;
38715;SDS011;24833;49.324;8.694;2022-12-29T16:32:53;2.95;;;2.30;;
38715;SDS011;24833;49.324;8.694;2022-12-29T16:43:33;1.60;;;1.38;;
38715;SDS011;24833;49.324;8.694;2022-12-29T16:46:55;2.55;;;1.45;;
38715;SDS011;24833;49.324;8.694;2022-12-29T16:48:58;2.58;;;1.35;;
38715;SDS011;24833;49.324;8.694;2022-12-29T16:51:32;2.95;;;1.10;;
38715;SDS011;24833;49.324;8.694;2022-12-29T16:54:02;2.05;;;1.30;;
38715;SDS011;24833;49.324;8.694;2022-12-29T16:56:31;2.63;;;1.55;;
38715;SDS011;24833;49.324;8.694;2022-12-29T17:01:42;3.20;;;1.40;;
38715;SDS011;24833;49.324;8.694;2022-12-29T17:04:10;2.85;;;1.65;;
38715;SDS011;24833;49.324;8.694;2022-12-29T17:06:39;6.07;;;1.90;;
38715;SDS011;24833;49.324;8.694;2022-12-29T17:09:20;3.45;;;2.30;;
38715;SDS011;24833;49.324;8.694;2022-12-29T17:11:56;4.32;;;1.98;;
38715;SDS011;24833;49.324;8.694;2022-12-29T17:14:43;2.35;;;1.50;;
38715;SDS011;24833;49.324;8.694;2022-12-29T17:20:19;3.30;;;1.27;;
38715;SDS011;24833;49.324;8.694;2022-12-29T17:22:54;2.05;;;1.20;;
38715;SDS011;24833;49.324;8.694;2022-12-29T17:27:59;1.75;;;1.08;;
38715;SDS011;24833;49.324;8.694;2022-12-29T17:30:31;2.45;;;1.10;;
38715;SDS011;24833;49.324;8.694;2022-12-29T17:33:05;1.20;;;1.10;;
38715;SDS011;24833;49.324;8.694;2022-12-29T17:35:38;1.60;;;1.02;;
38715;SDS011;24833;49.324;8.694;2022-12-29T17:38:16;2.05;;;1.08;;
38715;SDS011;24833;49.324;8.694;2022-12-29T17:40:45;1.88;;;0.93;;
38715;SDS011;24833;49.324;8.694;2022-12-29T17:43:13;2.50;;;1.10;;
38715;SDS011;24833;49.324;8.694;2022-12-29T17:45:42;1.77;;;1.20;;
38715;SDS011;24833;49.324;8.694;2022-12-29T17:48:11;2.70;;;1.30;;
38715;SDS011;24833;49.324;8.694;2022-12-29T17:50:40;2.83;;;1.60;;
38715;SDS011;24833;49.324;8.694;2022-12-29T17:53:13;5.03;;;2.40;;
38715;SDS011;24833;49.324;8.694;2022-12-29T17:55:45;3.70;;;2.00;;
38715;SDS011;24833;49.324;8.694;2022-12-29T18:00:49;3.55;;;1.80;;
38715;SDS011;24833;49.324;8.694;2022-12-29T18:03:22;3.83;;;1.23;;
38715;SDS011;24833;49.324;8.694;2022-12-29T18:05:54;2.95;;;1.50;;